sensor_id;sensor_type;location;lat;lon;timestamp;temperature;humidity
23377;DHT22;14353;46.070;13.222;2024-02-21T00:02:18;22.50;38.80
23377;DHT22;14353;46.070;13.222;2024-02-21T00:04:44;22.50;38.80
23377;DHT22;14353;46.070;13.222;2024-02-21T00:07:09;22.50;38.80
23377;DHT22;14353;46.070;13.222;2024-02-21T00:09:35;22.50;38.80
23377;DHT22;14353;46.070;13.222;2024-02-21T00:12:01;22.50;38.80
23377;DHT22;14353;46.070;13.222;2024-02-21T00:14:27;22.50;38.80
23377;DHT22;14353;46.070;13.222;2024-02-21T00:16:52;22.40;38.70
23377;DHT22;14353;46.070;13.222;2024-02-21T00:19:18;22.40;38.70
23377;DHT22;14353;46.070;13.222;2024-02-21T00:21:44;22.40;38.70
23377;DHT22;14353;46.070;13.222;2024-02-21T00:24:09;22.40;38.70
23377;DHT22;14353;46.070;13.222;2024-02-21T00:26:35;22.40;38.70
23377;DHT22;14353;46.070;13.222;2024-02-21T00:29:01;22.40;38.80
23377;DHT22;14353;46.070;13.222;2024-02-21T00:31:26;22.40;38.80
23377;DHT22;14353;46.070;13.222;2024-02-21T00:33:52;22.40;38.90
23377;DHT22;14353;46.070;13.222;2024-02-21T00:36:18;22.30;38.90
23377;DHT22;14353;46.070;13.222;2024-02-21T00:38:43;22.40;38.90
23377;DHT22;14353;46.070;13.222;2024-02-21T00:41:10;22.30;38.90
23377;DHT22;14353;46.070;13.222;2024-02-21T00:43:35;22.30;38.90
23377;DHT22;14353;46.070;13.222;2024-02-21T00:46:01;22.30;38.90
23377;DHT22;14353;46.070;13.222;2024-02-21T00:48:27;22.30;38.90
23377;DHT22;14353;46.070;13.222;2024-02-21T00:50:52;22.30;39.00
23377;DHT22;14353;46.070;13.222;2024-02-21T00:53:18;22.30;39.00
23377;DHT22;14353;46.070;13.222;2024-02-21T00:55:44;22.30;39.00
23377;DHT22;14353;46.070;13.222;2024-02-21T00:58:09;22.20;39.00
23377;DHT22;14353;46.070;13.222;2024-02-21T01:00:35;22.30;39.10
23377;DHT22;14353;46.070;13.222;2024-02-21T01:03:01;22.20;39.00
23377;DHT22;14353;46.070;13.222;2024-02-21T01:05:27;22.20;39.00
23377;DHT22;14353;46.070;13.222;2024-02-21T01:07:54;22.20;39.00
23377;DHT22;14353;46.070;13.222;2024-02-21T01:10:20;22.20;39.00
23377;DHT22;14353;46.070;13.222;2024-02-21T01:12:46;22.20;39.10
23377;DHT22;14353;46.070;13.222;2024-02-21T01:15:11;22.20;39.10
23377;DHT22;14353;46.070;13.222;2024-02-21T01:17:37;22.20;39.10
23377;DHT22;14353;46.070;13.222;2024-02-21T01:20:04;22.20;39.10
23377;DHT22;14353;46.070;13.222;2024-02-21T01:22:31;22.20;39.10
23377;DHT22;14353;46.070;13.222;2024-02-21T01:24:56;22.10;39.00
23377;DHT22;14353;46.070;13.222;2024-02-21T01:27:22;22.20;39.10
23377;DHT22;14353;46.070;13.222;2024-02-21T01:29:48;22.20;39.10
23377;DHT22;14353;46.070;13.222;2024-02-21T01:32:15;22.10;39.10
23377;DHT22;14353;46.070;13.222;2024-02-21T01:34:41;22.10;39.10
23377;DHT22;14353;46.070;13.222;2024-02-21T01:37:07;22.10;39.10
23377;DHT22;14353;46.070;13.222;2024-02-21T01:39:33;22.10;39.00
23377;DHT22;14353;46.070;13.222;2024-02-21T01:41:59;22.10;39.10
23377;DHT22;14353;46.070;13.222;2024-02-21T01:44:25;22.10;39.80
23377;DHT22;14353;46.070;13.222;2024-02-21T01:46:52;22.10;39.10
23377;DHT22;14353;46.070;13.222;2024-02-21T01:49:19;22.10;39.10
23377;DHT22;14353;46.070;13.222;2024-02-21T01:51:45;22.10;39.10
23377;DHT22;14353;46.070;13.222;2024-02-21T01:54:13;22.00;39.10
23377;DHT22;14353;46.070;13.222;2024-02-21T01:56:39;22.00;39.10
23377;DHT22;14353;46.070;13.222;2024-02-21T01:59:05;22.00;39.80
23377;DHT22;14353;46.070;13.222;2024-02-21T02:01:31;22.00;39.10
23377;DHT22;14353;46.070;13.222;2024-02-21T02:03:57;22.00;39.20
23377;DHT22;14353;46.070;13.222;2024-02-21T02:06:24;22.00;39.20
23377;DHT22;14353;46.070;13.222;2024-02-21T02:08:50;22.00;39.20
23377;DHT22;14353;46.070;13.222;2024-02-21T02:11:17;21.90;39.20
23377;DHT22;14353;46.070;13.222;2024-02-21T02:13:42;21.90;39.20
23377;DHT22;14353;46.070;13.222;2024-02-21T02:16:08;21.90;39.20
23377;DHT22;14353;46.070;13.222;2024-02-21T02:18:34;21.90;39.20
23377;DHT22;14353;46.070;13.222;2024-02-21T02:21:00;21.90;39.20
23377;DHT22;14353;46.070;13.222;2024-02-21T02:25:51;21.90;39.30
23377;DHT22;14353;46.070;13.222;2024-02-21T02:28:20;21.90;39.90
23377;DHT22;14353;46.070;13.222;2024-02-21T02:30:47;21.90;39.30
23377;DHT22;14353;46.070;13.222;2024-02-21T02:33:12;21.90;39.30
23377;DHT22;14353;46.070;13.222;2024-02-21T02:35:38;21.80;39.20
23377;DHT22;14353;46.070;13.222;2024-02-21T02:38:04;21.80;39.20
23377;DHT22;14353;46.070;13.222;2024-02-21T02:40:31;21.80;39.30
23377;DHT22;14353;46.070;13.222;2024-02-21T02:42:56;21.80;39.30
23377;DHT22;14353;46.070;13.222;2024-02-21T02:45:23;21.80;39.30
23377;DHT22;14353;46.070;13.222;2024-02-21T02:47:55;21.80;39.30
23377;DHT22;14353;46.070;13.222;2024-02-21T02:50:23;21.80;39.30
23377;DHT22;14353;46.070;13.222;2024-02-21T02:52:49;21.80;39.30
23377;DHT22;14353;46.070;13.222;2024-02-21T02:55:15;21.80;39.30
23377;DHT22;14353;46.070;13.222;2024-02-21T02:57:40;21.70;39.20
23377;DHT22;14353;46.070;13.222;2024-02-21T03:00:11;21.70;39.20
23377;DHT22;14353;46.070;13.222;2024-02-21T03:02:39;21.70;39.30
23377;DHT22;14353;46.070;13.222;2024-02-21T03:05:18;21.70;39.30
23377;DHT22;14353;46.070;13.222;2024-02-21T03:07:45;21.70;39.20
23377;DHT22;14353;46.070;13.222;2024-02-21T03:10:12;21.70;39.20
23377;DHT22;14353;46.070;13.222;2024-02-21T03:12:37;21.70;39.20
23377;DHT22;14353;46.070;13.222;2024-02-21T03:15:04;21.70;39.30
23377;DHT22;14353;46.070;13.222;2024-02-21T03:17:30;21.70;39.30
23377;DHT22;14353;46.070;13.222;2024-02-21T03:19:57;21.70;39.30
23377;DHT22;14353;46.070;13.222;2024-02-21T03:22:23;21.70;39.30
23377;DHT22;14353;46.070;13.222;2024-02-21T03:24:49;21.70;39.30
23377;DHT22;14353;46.070;13.222;2024-02-21T03:27:14;21.70;39.30
23377;DHT22;14353;46.070;13.222;2024-02-21T03:29:40;21.60;39.20
23377;DHT22;14353;46.070;13.222;2024-02-21T03:32:06;21.60;39.20
23377;DHT22;14353;46.070;13.222;2024-02-21T03:34:31;21.60;39.20
23377;DHT22;14353;46.070;13.222;2024-02-21T03:36:57;21.60;39.20
23377;DHT22;14353;46.070;13.222;2024-02-21T03:39:24;21.60;39.20
23377;DHT22;14353;46.070;13.222;2024-02-21T03:41:50;21.60;39.20
23377;DHT22;14353;46.070;13.222;2024-02-21T03:44:16;21.60;39.30
23377;DHT22;14353;46.070;13.222;2024-02-21T03:46:42;21.60;39.20
23377;DHT22;14353;46.070;13.222;2024-02-21T03:49:08;21.60;39.20
23377;DHT22;14353;46.070;13.222;2024-02-21T03:51:34;21.50;39.20
23377;DHT22;14353;46.070;13.222;2024-02-21T03:53:59;21.50;39.20
23377;DHT22;14353;46.070;13.222;2024-02-21T03:56:25;21.50;39.20
23377;DHT22;14353;46.070;13.222;2024-02-21T03:58:50;21.50;39.20
23377;DHT22;14353;46.070;13.222;2024-02-21T04:01:16;21.50;39.20
23377;DHT22;14353;46.070;13.222;2024-02-21T04:03:43;21.50;39.20
23377;DHT22;14353;46.070;13.222;2024-02-21T04:06:09;21.50;39.20
23377;DHT22;14353;46.070;13.222;2024-02-21T04:08:35;21.50;39.20
23377;DHT22;14353;46.070;13.222;2024-02-21T04:11:01;21.50;39.20
23377;DHT22;14353;46.070;13.222;2024-02-21T04:13:26;21.50;39.30
23377;DHT22;14353;46.070;13.222;2024-02-21T04:15:52;21.50;39.20
23377;DHT22;14353;46.070;13.222;2024-02-21T04:18:18;21.50;39.20
23377;DHT22;14353;46.070;13.222;2024-02-21T04:20:44;21.50;39.20
23377;DHT22;14353;46.070;13.222;2024-02-21T04:23:09;21.50;39.20
23377;DHT22;14353;46.070;13.222;2024-02-21T04:25:36;21.50;39.10
23377;DHT22;14353;46.070;13.222;2024-02-21T04:28:01;21.50;39.00
23377;DHT22;14353;46.070;13.222;2024-02-21T04:30:28;21.60;38.90
23377;DHT22;14353;46.070;13.222;2024-02-21T04:32:54;21.60;38.90
23377;DHT22;14353;46.070;13.222;2024-02-21T04:35:20;21.60;38.80
23377;DHT22;14353;46.070;13.222;2024-02-21T04:37:46;21.60;38.80
23377;DHT22;14353;46.070;13.222;2024-02-21T04:40:11;21.60;38.70
23377;DHT22;14353;46.070;13.222;2024-02-21T04:42:38;21.70;38.70
23377;DHT22;14353;46.070;13.222;2024-02-21T04:45:05;21.70;38.60
23377;DHT22;14353;46.070;13.222;2024-02-21T04:47:30;21.70;38.60
23377;DHT22;14353;46.070;13.222;2024-02-21T04:49:56;21.70;38.50
23377;DHT22;14353;46.070;13.222;2024-02-21T04:52:22;21.80;38.50
23377;DHT22;14353;46.070;13.222;2024-02-21T04:54:47;21.70;38.40
23377;DHT22;14353;46.070;13.222;2024-02-21T04:57:13;21.70;38.40
23377;DHT22;14353;46.070;13.222;2024-02-21T04:59:44;21.70;38.40
23377;DHT22;14353;46.070;13.222;2024-02-21T05:02:10;21.70;38.40
23377;DHT22;14353;46.070;13.222;2024-02-21T05:04:36;21.70;38.40
23377;DHT22;14353;46.070;13.222;2024-02-21T05:07:04;21.70;39.00
23377;DHT22;14353;46.070;13.222;2024-02-21T05:09:29;21.70;38.40
23377;DHT22;14353;46.070;13.222;2024-02-21T05:11:55;21.70;38.40
23377;DHT22;14353;46.070;13.222;2024-02-21T05:14:21;21.70;38.40
23377;DHT22;14353;46.070;13.222;2024-02-21T05:16:46;21.70;38.40
23377;DHT22;14353;46.070;13.222;2024-02-21T05:19:12;21.70;38.40
23377;DHT22;14353;46.070;13.222;2024-02-21T05:21:38;21.70;38.40
23377;DHT22;14353;46.070;13.222;2024-02-21T05:24:04;21.70;38.40
23377;DHT22;14353;46.070;13.222;2024-02-21T05:26:29;21.70;38.40
23377;DHT22;14353;46.070;13.222;2024-02-21T05:28:55;21.70;38.40
23377;DHT22;14353;46.070;13.222;2024-02-21T05:31:21;21.70;38.40
23377;DHT22;14353;46.070;13.222;2024-02-21T05:33:47;21.70;38.40
23377;DHT22;14353;46.070;13.222;2024-02-21T05:36:13;21.70;38.40
23377;DHT22;14353;46.070;13.222;2024-02-21T05:38:39;21.80;38.40
23377;DHT22;14353;46.070;13.222;2024-02-21T05:41:05;21.80;38.30
23377;DHT22;14353;46.070;13.222;2024-02-21T05:43:31;21.80;38.30
23377;DHT22;14353;46.070;13.222;2024-02-21T05:45:57;21.80;38.20
23377;DHT22;14353;46.070;13.222;2024-02-21T05:48:23;21.80;38.20
23377;DHT22;14353;46.070;13.222;2024-02-21T05:50:49;21.80;38.10
23377;DHT22;14353;46.070;13.222;2024-02-21T05:53:15;21.80;38.10
23377;DHT22;14353;46.070;13.222;2024-02-21T05:55:41;21.80;38.10
23377;DHT22;14353;46.070;13.222;2024-02-21T05:58:07;21.80;38.10
23377;DHT22;14353;46.070;13.222;2024-02-21T06:00:33;21.80;38.10
23377;DHT22;14353;46.070;13.222;2024-02-21T06:02:59;21.80;38.00
23377;DHT22;14353;46.070;13.222;2024-02-21T06:05:25;21.80;38.00
23377;DHT22;14353;46.070;13.222;2024-02-21T06:07:50;21.90;38.10
23377;DHT22;14353;46.070;13.222;2024-02-21T06:10:16;21.90;38.00
23377;DHT22;14353;46.070;13.222;2024-02-21T06:12:42;21.90;38.00
23377;DHT22;14353;46.070;13.222;2024-02-21T06:15:08;21.90;37.90
23377;DHT22;14353;46.070;13.222;2024-02-21T06:17:34;21.90;37.90
23377;DHT22;14353;46.070;13.222;2024-02-21T06:20:00;21.90;37.90
23377;DHT22;14353;46.070;13.222;2024-02-21T06:22:25;21.90;37.90
23377;DHT22;14353;46.070;13.222;2024-02-21T06:24:51;21.90;37.80
23377;DHT22;14353;46.070;13.222;2024-02-21T06:27:18;22.00;37.80
23377;DHT22;14353;46.070;13.222;2024-02-21T06:29:44;22.00;37.80
23377;DHT22;14353;46.070;13.222;2024-02-21T06:32:10;22.00;37.70
23377;DHT22;14353;46.070;13.222;2024-02-21T06:34:35;22.00;37.50
23377;DHT22;14353;46.070;13.222;2024-02-21T06:37:01;22.00;37.40
23377;DHT22;14353;46.070;13.222;2024-02-21T06:39:27;22.00;37.30
23377;DHT22;14353;46.070;13.222;2024-02-21T06:41:54;22.10;37.30
23377;DHT22;14353;46.070;13.222;2024-02-21T06:44:21;22.10;37.30
23377;DHT22;14353;46.070;13.222;2024-02-21T06:46:47;22.10;37.30
23377;DHT22;14353;46.070;13.222;2024-02-21T06:49:12;22.10;37.30
23377;DHT22;14353;46.070;13.222;2024-02-21T06:51:44;22.10;37.20
23377;DHT22;14353;46.070;13.222;2024-02-21T06:54:10;22.20;37.20
23377;DHT22;14353;46.070;13.222;2024-02-21T06:56:37;22.20;37.20
23377;DHT22;14353;46.070;13.222;2024-02-21T06:59:03;22.20;37.20
23377;DHT22;14353;46.070;13.222;2024-02-21T07:01:29;22.20;37.10
23377;DHT22;14353;46.070;13.222;2024-02-21T07:03:55;22.20;37.10
23377;DHT22;14353;46.070;13.222;2024-02-21T07:06:22;22.30;37.10
23377;DHT22;14353;46.070;13.222;2024-02-21T07:08:47;22.30;37.00
23377;DHT22;14353;46.070;13.222;2024-02-21T07:11:13;22.30;37.00
23377;DHT22;14353;46.070;13.222;2024-02-21T07:13:39;22.30;36.90
23377;DHT22;14353;46.070;13.222;2024-02-21T07:16:05;22.40;36.90
23377;DHT22;14353;46.070;13.222;2024-02-21T07:18:31;22.40;36.80
23377;DHT22;14353;46.070;13.222;2024-02-21T07:20:57;22.40;36.80
23377;DHT22;14353;46.070;13.222;2024-02-21T07:23:24;22.40;36.70
23377;DHT22;14353;46.070;13.222;2024-02-21T07:25:49;22.50;36.70
23377;DHT22;14353;46.070;13.222;2024-02-21T07:28:15;22.50;35.90
23377;DHT22;14353;46.070;13.222;2024-02-21T07:30:42;22.50;36.20
23377;DHT22;14353;46.070;13.222;2024-02-21T07:33:08;22.50;35.20
23377;DHT22;14353;46.070;13.222;2024-02-21T07:35:33;22.60;34.90
23377;DHT22;14353;46.070;13.222;2024-02-21T07:37:59;22.60;34.80
23377;DHT22;14353;46.070;13.222;2024-02-21T07:40:25;22.60;34.90
23377;DHT22;14353;46.070;13.222;2024-02-21T07:42:51;22.60;35.00
23377;DHT22;14353;46.070;13.222;2024-02-21T07:45:17;22.60;35.30
23377;DHT22;14353;46.070;13.222;2024-02-21T07:47:43;22.60;35.50
23377;DHT22;14353;46.070;13.222;2024-02-21T07:50:09;22.70;35.40
23377;DHT22;14353;46.070;13.222;2024-02-21T07:52:35;22.70;35.50
23377;DHT22;14353;46.070;13.222;2024-02-21T07:55:01;22.80;35.50
23377;DHT22;14353;46.070;13.222;2024-02-21T07:57:27;22.80;35.40
23377;DHT22;14353;46.070;13.222;2024-02-21T07:59:52;22.80;35.40
23377;DHT22;14353;46.070;13.222;2024-02-21T08:02:18;22.80;35.30
23377;DHT22;14353;46.070;13.222;2024-02-21T08:04:44;22.90;35.30
23377;DHT22;14353;46.070;13.222;2024-02-21T08:07:09;22.90;35.30
23377;DHT22;14353;46.070;13.222;2024-02-21T08:09:35;23.00;35.20
23377;DHT22;14353;46.070;13.222;2024-02-21T08:12:04;23.00;35.10
23377;DHT22;14353;46.070;13.222;2024-02-21T08:14:30;23.00;35.10
23377;DHT22;14353;46.070;13.222;2024-02-21T08:16:55;23.10;35.10
23377;DHT22;14353;46.070;13.222;2024-02-21T08:19:21;23.10;34.90
23377;DHT22;14353;46.070;13.222;2024-02-21T08:21:50;23.20;34.90
23377;DHT22;14353;46.070;13.222;2024-02-21T08:24:17;23.20;34.80
23377;DHT22;14353;46.070;13.222;2024-02-21T08:26:43;23.30;34.70
23377;DHT22;14353;46.070;13.222;2024-02-21T08:29:12;23.40;34.60
23377;DHT22;14353;46.070;13.222;2024-02-21T08:31:38;23.40;34.50
23377;DHT22;14353;46.070;13.222;2024-02-21T08:34:04;23.50;34.50
23377;DHT22;14353;46.070;13.222;2024-02-21T08:36:36;23.50;34.50
23377;DHT22;14353;46.070;13.222;2024-02-21T08:39:02;23.50;34.50
23377;DHT22;14353;46.070;13.222;2024-02-21T08:41:32;23.50;34.40
23377;DHT22;14353;46.070;13.222;2024-02-21T08:43:58;23.50;34.40
23377;DHT22;14353;46.070;13.222;2024-02-21T08:46:24;23.60;34.40
23377;DHT22;14353;46.070;13.222;2024-02-21T08:48:50;23.60;34.30
23377;DHT22;14353;46.070;13.222;2024-02-21T08:51:19;23.60;34.30
23377;DHT22;14353;46.070;13.222;2024-02-21T08:53:45;23.60;34.30
23377;DHT22;14353;46.070;13.222;2024-02-21T08:56:11;23.60;34.20
23377;DHT22;14353;46.070;13.222;2024-02-21T08:58:38;23.60;34.20
23377;DHT22;14353;46.070;13.222;2024-02-21T09:01:04;23.70;34.20
23377;DHT22;14353;46.070;13.222;2024-02-21T09:03:32;23.70;34.20
23377;DHT22;14353;46.070;13.222;2024-02-21T09:05:58;23.80;34.20
23377;DHT22;14353;46.070;13.222;2024-02-21T09:08:24;23.80;34.10
23377;DHT22;14353;46.070;13.222;2024-02-21T09:10:50;23.80;34.00
23377;DHT22;14353;46.070;13.222;2024-02-21T09:13:16;23.90;34.00
23377;DHT22;14353;46.070;13.222;2024-02-21T09:15:42;23.90;34.00
23377;DHT22;14353;46.070;13.222;2024-02-21T09:18:09;23.90;33.90
23377;DHT22;14353;46.070;13.222;2024-02-21T09:20:34;24.00;34.00
23377;DHT22;14353;46.070;13.222;2024-02-21T09:23:00;24.10;33.80
23377;DHT22;14353;46.070;13.222;2024-02-21T09:25:26;24.10;33.80
23377;DHT22;14353;46.070;13.222;2024-02-21T09:27:54;24.10;33.70
23377;DHT22;14353;46.070;13.222;2024-02-21T09:30:20;24.20;33.60
23377;DHT22;14353;46.070;13.222;2024-02-21T09:32:46;24.20;33.50
23377;DHT22;14353;46.070;13.222;2024-02-21T09:35:12;24.30;33.50
23377;DHT22;14353;46.070;13.222;2024-02-21T09:37:38;24.40;33.40
23377;DHT22;14353;46.070;13.222;2024-02-21T09:40:05;24.40;33.30
23377;DHT22;14353;46.070;13.222;2024-02-21T09:42:51;24.50;33.90
23377;DHT22;14353;46.070;13.222;2024-02-21T09:45:21;24.60;33.10
23377;DHT22;14353;46.070;13.222;2024-02-21T09:50:29;24.70;32.90
23377;DHT22;14353;46.070;13.222;2024-02-21T09:52:57;24.80;32.80
23377;DHT22;14353;46.070;13.222;2024-02-21T09:55:25;24.80;32.70
23377;DHT22;14353;46.070;13.222;2024-02-21T09:57:53;24.90;32.60
23377;DHT22;14353;46.070;13.222;2024-02-21T10:00:19;25.00;32.60
23377;DHT22;14353;46.070;13.222;2024-02-21T10:02:50;25.00;32.40
23377;DHT22;14353;46.070;13.222;2024-02-21T10:05:16;25.10;32.30
23377;DHT22;14353;46.070;13.222;2024-02-21T10:07:43;25.20;32.20
23377;DHT22;14353;46.070;13.222;2024-02-21T10:10:10;25.30;32.10
23377;DHT22;14353;46.070;13.222;2024-02-21T10:12:35;25.40;32.00
23377;DHT22;14353;46.070;13.222;2024-02-21T10:15:05;25.50;31.80
23377;DHT22;14353;46.070;13.222;2024-02-21T10:17:35;25.60;31.60
23377;DHT22;14353;46.070;13.222;2024-02-21T10:20:11;25.90;31.20
23377;DHT22;14353;46.070;13.222;2024-02-21T10:22:38;26.20;30.50
23377;DHT22;14353;46.070;13.222;2024-02-21T10:25:12;26.80;29.80
23377;DHT22;14353;46.070;13.222;2024-02-21T10:27:38;27.50;29.00
23377;DHT22;14353;46.070;13.222;2024-02-21T10:30:06;28.30;28.20
23377;DHT22;14353;46.070;13.222;2024-02-21T10:32:32;28.90;27.50
23377;DHT22;14353;46.070;13.222;2024-02-21T10:35:02;29.30;27.30
23377;DHT22;14353;46.070;13.222;2024-02-21T10:37:31;29.20;27.10
23377;DHT22;14353;46.070;13.222;2024-02-21T10:39:58;29.00;27.30
23377;DHT22;14353;46.070;13.222;2024-02-21T10:42:28;29.00;27.40
23377;DHT22;14353;46.070;13.222;2024-02-21T10:45:00;29.20;27.00
23377;DHT22;14353;46.070;13.222;2024-02-21T10:47:27;29.90;26.40
23377;DHT22;14353;46.070;13.222;2024-02-21T10:50:03;30.80;25.50
23377;DHT22;14353;46.070;13.222;2024-02-21T10:57:40;33.10;23.20
23377;DHT22;14353;46.070;13.222;2024-02-21T11:00:07;33.50;22.80
23377;DHT22;14353;46.070;13.222;2024-02-21T11:02:36;33.80;22.60
23377;DHT22;14353;46.070;13.222;2024-02-21T11:05:03;34.00;22.40
23377;DHT22;14353;46.070;13.222;2024-02-21T11:07:30;34.20;22.30
23377;DHT22;14353;46.070;13.222;2024-02-21T11:09:58;34.40;22.10
23377;DHT22;14353;46.070;13.222;2024-02-21T11:12:25;34.50;21.90
23377;DHT22;14353;46.070;13.222;2024-02-21T11:14:51;34.70;21.90
23377;DHT22;14353;46.070;13.222;2024-02-21T11:17:19;34.80;21.70
23377;DHT22;14353;46.070;13.222;2024-02-21T11:19:45;34.90;21.60
23377;DHT22;14353;46.070;13.222;2024-02-21T11:22:15;35.10;21.50
23377;DHT22;14353;46.070;13.222;2024-02-21T11:24:45;35.20;21.40
23377;DHT22;14353;46.070;13.222;2024-02-21T11:27:21;35.40;21.30
23377;DHT22;14353;46.070;13.222;2024-02-21T11:29:55;35.40;21.30
23377;DHT22;14353;46.070;13.222;2024-02-21T11:32:21;35.40;21.20
23377;DHT22;14353;46.070;13.222;2024-02-21T11:34:56;35.50;21.20
23377;DHT22;14353;46.070;13.222;2024-02-21T11:37:27;35.50;21.20
23377;DHT22;14353;46.070;13.222;2024-02-21T11:39:57;35.60;21.20
23377;DHT22;14353;46.070;13.222;2024-02-21T11:42:28;35.60;21.20
23377;DHT22;14353;46.070;13.222;2024-02-21T11:44:56;35.50;21.20
23377;DHT22;14353;46.070;13.222;2024-02-21T11:47:25;35.60;21.20
23377;DHT22;14353;46.070;13.222;2024-02-21T11:49:51;35.60;21.20
23377;DHT22;14353;46.070;13.222;2024-02-21T11:52:22;35.60;21.20
23377;DHT22;14353;46.070;13.222;2024-02-21T11:54:50;35.70;21.20
23377;DHT22;14353;46.070;13.222;2024-02-21T11:57:17;35.70;21.10
23377;DHT22;14353;46.070;13.222;2024-02-21T11:59:44;35.70;21.00
23377;DHT22;14353;46.070;13.222;2024-02-21T12:02:11;35.80;21.00
23377;DHT22;14353;46.070;13.222;2024-02-21T12:04:37;35.90;21.10
23377;DHT22;14353;46.070;13.222;2024-02-21T12:07:04;35.90;21.10
23377;DHT22;14353;46.070;13.222;2024-02-21T12:09:31;35.80;21.00
23377;DHT22;14353;46.070;13.222;2024-02-21T12:12:01;35.70;21.10
23377;DHT22;14353;46.070;13.222;2024-02-21T12:14:29;35.70;21.10
23377;DHT22;14353;46.070;13.222;2024-02-21T12:17:02;35.80;21.10
23377;DHT22;14353;46.070;13.222;2024-02-21T12:19:30;36.00;20.90
23377;DHT22;14353;46.070;13.222;2024-02-21T12:21:58;36.10;20.80
23377;DHT22;14353;46.070;13.222;2024-02-21T12:24:25;36.20;20.90
23377;DHT22;14353;46.070;13.222;2024-02-21T12:26:52;36.10;20.90
23377;DHT22;14353;46.070;13.222;2024-02-21T12:29:21;36.20;20.90
23377;DHT22;14353;46.070;13.222;2024-02-21T12:31:47;36.10;21.00
23377;DHT22;14353;46.070;13.222;2024-02-21T12:34:14;36.20;21.00
23377;DHT22;14353;46.070;13.222;2024-02-21T12:36:46;36.30;20.80
23377;DHT22;14353;46.070;13.222;2024-02-21T12:39:13;36.40;20.90
23377;DHT22;14353;46.070;13.222;2024-02-21T12:41:39;36.40;20.80
23377;DHT22;14353;46.070;13.222;2024-02-21T12:44:06;36.60;20.80
23377;DHT22;14353;46.070;13.222;2024-02-21T12:46:36;36.60;20.80
23377;DHT22;14353;46.070;13.222;2024-02-21T12:49:02;36.60;20.70
23377;DHT22;14353;46.070;13.222;2024-02-21T12:51:29;36.70;20.80
23377;DHT22;14353;46.070;13.222;2024-02-21T12:53:56;36.60;20.80
23377;DHT22;14353;46.070;13.222;2024-02-21T12:56:22;36.50;19.90
23377;DHT22;14353;46.070;13.222;2024-02-21T12:58:47;36.30;20.60
23377;DHT22;14353;46.070;13.222;2024-02-21T13:01:13;35.90;21.40
23377;DHT22;14353;46.070;13.222;2024-02-21T13:03:39;35.70;21.20
23377;DHT22;14353;46.070;13.222;2024-02-21T13:06:08;35.60;21.40
23377;DHT22;14353;46.070;13.222;2024-02-21T13:08:36;35.50;21.50
23377;DHT22;14353;46.070;13.222;2024-02-21T13:11:02;35.50;21.60
23377;DHT22;14353;46.070;13.222;2024-02-21T13:13:28;35.40;21.60
23377;DHT22;14353;46.070;13.222;2024-02-21T13:15:53;35.20;21.70
23377;DHT22;14353;46.070;13.222;2024-02-21T13:18:19;34.80;22.00
23377;DHT22;14353;46.070;13.222;2024-02-21T13:20:47;34.30;22.60
23377;DHT22;14353;46.070;13.222;2024-02-21T13:23:13;33.90;23.00
23377;DHT22;14353;46.070;13.222;2024-02-21T13:25:38;33.70;23.20
23377;DHT22;14353;46.070;13.222;2024-02-21T13:28:04;33.70;23.10
23377;DHT22;14353;46.070;13.222;2024-02-21T13:30:30;34.00;22.90
23377;DHT22;14353;46.070;13.222;2024-02-21T13:32:56;34.30;22.60
23377;DHT22;14353;46.070;13.222;2024-02-21T13:35:22;34.60;21.80
23377;DHT22;14353;46.070;13.222;2024-02-21T13:37:47;34.80;22.00
23377;DHT22;14353;46.070;13.222;2024-02-21T13:40:14;35.00;21.90
23377;DHT22;14353;46.070;13.222;2024-02-21T13:42:40;35.10;21.70
23377;DHT22;14353;46.070;13.222;2024-02-21T13:45:06;35.20;21.70
23377;DHT22;14353;46.070;13.222;2024-02-21T13:47:35;35.40;21.70
23377;DHT22;14353;46.070;13.222;2024-02-21T13:50:05;35.20;21.80
23377;DHT22;14353;46.070;13.222;2024-02-21T13:52:34;35.00;22.00
23377;DHT22;14353;46.070;13.222;2024-02-21T13:55:00;34.50;22.60
23377;DHT22;14353;46.070;13.222;2024-02-21T13:57:26;33.90;23.20
23377;DHT22;14353;46.070;13.222;2024-02-21T13:59:51;33.30;23.80
23377;DHT22;14353;46.070;13.222;2024-02-21T14:02:17;32.70;24.30
23377;DHT22;14353;46.070;13.222;2024-02-21T14:04:43;32.20;24.90
23377;DHT22;14353;46.070;13.222;2024-02-21T14:07:09;31.70;25.40
23377;DHT22;14353;46.070;13.222;2024-02-21T14:09:35;31.30;25.80
23377;DHT22;14353;46.070;13.222;2024-02-21T14:12:01;31.00;26.20
23377;DHT22;14353;46.070;13.222;2024-02-21T14:14:26;30.70;26.60
23377;DHT22;14353;46.070;13.222;2024-02-21T14:16:52;30.50;26.90
23377;DHT22;14353;46.070;13.222;2024-02-21T14:19:18;30.30;27.10
23377;DHT22;14353;46.070;13.222;2024-02-21T14:21:44;30.10;27.30
23377;DHT22;14353;46.070;13.222;2024-02-21T14:24:11;30.00;27.50
23377;DHT22;14353;46.070;13.222;2024-02-21T14:26:37;29.80;27.60
23377;DHT22;14353;46.070;13.222;2024-02-21T14:29:04;29.70;27.80
23377;DHT22;14353;46.070;13.222;2024-02-21T14:31:33;29.70;28.00
23377;DHT22;14353;46.070;13.222;2024-02-21T14:33:59;29.60;28.10
23377;DHT22;14353;46.070;13.222;2024-02-21T14:36:26;29.50;28.10
23377;DHT22;14353;46.070;13.222;2024-02-21T14:38:52;29.50;28.20
23377;DHT22;14353;46.070;13.222;2024-02-21T14:41:18;29.40;28.30
23377;DHT22;14353;46.070;13.222;2024-02-21T14:43:44;29.40;28.30
23377;DHT22;14353;46.070;13.222;2024-02-21T14:46:11;29.40;28.90
23377;DHT22;14353;46.070;13.222;2024-02-21T14:48:38;29.40;28.50
23377;DHT22;14353;46.070;13.222;2024-02-21T14:51:04;29.40;28.50
23377;DHT22;14353;46.070;13.222;2024-02-21T14:53:29;29.30;28.50
23377;DHT22;14353;46.070;13.222;2024-02-21T14:55:56;29.30;28.60
23377;DHT22;14353;46.070;13.222;2024-02-21T14:58:23;29.30;28.70
23377;DHT22;14353;46.070;13.222;2024-02-21T15:00:49;29.20;28.80
23377;DHT22;14353;46.070;13.222;2024-02-21T15:03:18;29.20;28.90
23377;DHT22;14353;46.070;13.222;2024-02-21T15:05:47;29.20;26.70
23377;DHT22;14353;46.070;13.222;2024-02-21T15:08:12;29.00;26.40
23377;DHT22;14353;46.070;13.222;2024-02-21T15:10:42;28.80;26.50
23377;DHT22;14353;46.070;13.222;2024-02-21T15:13:08;28.60;26.80
23377;DHT22;14353;46.070;13.222;2024-02-21T15:15:34;28.40;26.80
23377;DHT22;14353;46.070;13.222;2024-02-21T15:18:00;28.30;27.10
23377;DHT22;14353;46.070;13.222;2024-02-21T15:20:25;28.10;27.30
23377;DHT22;14353;46.070;13.222;2024-02-21T15:22:51;28.10;27.40